sensor_id;sensor_type;location;lat;lon;timestamp;P1;durP1;ratioP1;P2;durP2;ratioP2
52668;SDS011;59898;52.786;6.892;2022-11-20T00:01:59;27.90;;;18.13;;
52668;SDS011;59898;52.786;6.892;2022-11-20T00:05:20;28.48;;;19.63;;
52668;SDS011;59898;52.786;6.892;2022-11-20T00:08:41;21.90;;;15.35;;
52668;SDS011;59898;52.786;6.892;2022-11-20T00:12:02;23.23;;;14.95;;
52668;SDS011;59898;52.786;6.892;2022-11-20T00:15:23;21.95;;;14.45;;
52668;SDS011;59898;52.786;6.892;2022-11-20T00:18:44;23.75;;;14.63;;
52668;SDS011;59898;52.786;6.892;2022-11-20T00:22:05;23.02;;;14.40;;
52668;SDS011;59898;52.786;6.892;2022-11-20T00:25:25;20.60;;;13.73;;
52668;SDS011;59898;52.786;6.892;2022-11-20T00:28:53;26.42;;;15.38;;
52668;SDS011;59898;52.786;6.892;2022-11-20T00:32:15;16.38;;;11.55;;
52668;SDS011;59898;52.786;6.892;2022-11-20T00:35:36;12.02;;;9.98;;
52668;SDS011;59898;52.786;6.892;2022-11-20T00:38:57;14.88;;;10.93;;
52668;SDS011;59898;52.786;6.892;2022-11-20T00:42:18;16.88;;;11.88;;
52668;SDS011;59898;52.786;6.892;2022-11-20T00:45:39;17.60;;;12.75;;
52668;SDS011;59898;52.786;6.892;2022-11-20T00:49:00;19.30;;;11.07;;
52668;SDS011;59898;52.786;6.892;2022-11-20T00:52:21;17.63;;;12.05;;
52668;SDS011;59898;52.786;6.892;2022-11-20T00:55:41;18.10;;;12.90;;
52668;SDS011;59898;52.786;6.892;2022-11-20T00:59:02;18.48;;;13.05;;
52668;SDS011;59898;52.786;6.892;2022-11-20T01:02:23;19.70;;;13.90;;
52668;SDS011;59898;52.786;6.892;2022-11-20T01:05:43;18.55;;;13.02;;
52668;SDS011;59898;52.786;6.892;2022-11-20T01:09:06;16.73;;;13.75;;
52668;SDS011;59898;52.786;6.892;2022-11-20T01:12:29;16.58;;;12.20;;
52668;SDS011;59898;52.786;6.892;2022-11-20T01:15:50;15.82;;;11.85;;
52668;SDS011;59898;52.786;6.892;2022-11-20T01:19:13;17.58;;;12.68;;
52668;SDS011;59898;52.786;6.892;2022-11-20T01:22:35;23.85;;;15.98;;
52668;SDS011;59898;52.786;6.892;2022-11-20T01:25:56;20.63;;;14.73;;
52668;SDS011;59898;52.786;6.892;2022-11-20T01:29:17;20.38;;;15.05;;
52668;SDS011;59898;52.786;6.892;2022-11-20T01:32:40;17.48;;;13.63;;
52668;SDS011;59898;52.786;6.892;2022-11-20T01:36:04;19.92;;;14.52;;
52668;SDS011;59898;52.786;6.892;2022-11-20T01:39:26;22.13;;;16.27;;
52668;SDS011;59898;52.786;6.892;2022-11-20T01:42:47;23.80;;;14.30;;
52668;SDS011;59898;52.786;6.892;2022-11-20T01:46:36;21.05;;;13.15;;
52668;SDS011;59898;52.786;6.892;2022-11-20T01:50:11;19.88;;;14.73;;
52668;SDS011;59898;52.786;6.892;2022-11-20T01:53:36;20.63;;;13.38;;
52668;SDS011;59898;52.786;6.892;2022-11-20T01:56:57;20.48;;;14.68;;
52668;SDS011;59898;52.786;6.892;2022-11-20T02:00:21;20.48;;;14.20;;
52668;SDS011;59898;52.786;6.892;2022-11-20T02:03:41;16.00;;;12.65;;
52668;SDS011;59898;52.786;6.892;2022-11-20T02:07:04;18.87;;;12.93;;
52668;SDS011;59898;52.786;6.892;2022-11-20T02:10:26;16.58;;;12.68;;
52668;SDS011;59898;52.786;6.892;2022-11-20T02:13:48;19.13;;;13.15;;
52668;SDS011;59898;52.786;6.892;2022-11-20T02:17:09;20.95;;;13.13;;
52668;SDS011;59898;52.786;6.892;2022-11-20T02:20:30;14.25;;;11.15;;
52668;SDS011;59898;52.786;6.892;2022-11-20T02:27:28;17.80;;;12.02;;
52668;SDS011;59898;52.786;6.892;2022-11-20T02:30:49;16.55;;;11.70;;
52668;SDS011;59898;52.786;6.892;2022-11-20T02:34:10;17.25;;;11.88;;
52668;SDS011;59898;52.786;6.892;2022-11-20T02:37:32;16.40;;;11.60;;
52668;SDS011;59898;52.786;6.892;2022-11-20T02:40:54;19.15;;;11.55;;
52668;SDS011;59898;52.786;6.892;2022-11-20T02:44:15;17.13;;;12.40;;
52668;SDS011;59898;52.786;6.892;2022-11-20T02:47:36;16.25;;;11.48;;
52668;SDS011;59898;52.786;6.892;2022-11-20T02:50:57;16.50;;;11.77;;
52668;SDS011;59898;52.786;6.892;2022-11-20T02:54:17;14.68;;;11.15;;
52668;SDS011;59898;52.786;6.892;2022-11-20T02:57:38;14.10;;;11.30;;
52668;SDS011;59898;52.786;6.892;2022-11-20T03:00:59;16.75;;;12.55;;
52668;SDS011;59898;52.786;6.892;2022-11-20T03:04:19;16.73;;;11.73;;
52668;SDS011;59898;52.786;6.892;2022-11-20T03:07:40;15.75;;;12.50;;
52668;SDS011;59898;52.786;6.892;2022-11-20T03:11:05;17.05;;;12.05;;
52668;SDS011;59898;52.786;6.892;2022-11-20T03:14:26;17.30;;;12.32;;
52668;SDS011;59898;52.786;6.892;2022-11-20T03:17:47;16.08;;;11.98;;
52668;SDS011;59898;52.786;6.892;2022-11-20T03:21:08;14.82;;;10.90;;
52668;SDS011;59898;52.786;6.892;2022-11-20T03:24:30;14.97;;;11.67;;
52668;SDS011;59898;52.786;6.892;2022-11-20T03:27:51;14.60;;;10.18;;
52668;SDS011;59898;52.786;6.892;2022-11-20T03:31:13;20.02;;;11.07;;
52668;SDS011;59898;52.786;6.892;2022-11-20T03:34:35;14.88;;;10.55;;
52668;SDS011;59898;52.786;6.892;2022-11-20T03:37:56;15.63;;;10.68;;
52668;SDS011;59898;52.786;6.892;2022-11-20T03:41:22;18.77;;;12.33;;
52668;SDS011;59898;52.786;6.892;2022-11-20T03:44:44;17.30;;;12.18;;
52668;SDS011;59898;52.786;6.892;2022-11-20T03:48:05;16.63;;;10.23;;
52668;SDS011;59898;52.786;6.892;2022-11-20T03:51:26;14.80;;;10.55;;
52668;SDS011;59898;52.786;6.892;2022-11-20T03:54:48;20.38;;;11.10;;
52668;SDS011;59898;52.786;6.892;2022-11-20T03:58:09;15.82;;;10.38;;
52668;SDS011;59898;52.786;6.892;2022-11-20T04:01:31;13.20;;;10.55;;
52668;SDS011;59898;52.786;6.892;2022-11-20T04:04:57;15.90;;;10.95;;
52668;SDS011;59898;52.786;6.892;2022-11-20T04:08:17;15.23;;;9.90;;
52668;SDS011;59898;52.786;6.892;2022-11-20T04:11:39;14.20;;;10.60;;
52668;SDS011;59898;52.786;6.892;2022-11-20T04:15:00;16.50;;;10.48;;
52668;SDS011;59898;52.786;6.892;2022-11-20T04:18:21;13.75;;;9.95;;
52668;SDS011;59898;52.786;6.892;2022-11-20T04:21:42;14.07;;;9.93;;
52668;SDS011;59898;52.786;6.892;2022-11-20T04:25:03;15.80;;;10.82;;
52668;SDS011;59898;52.786;6.892;2022-11-20T04:28:24;13.68;;;10.80;;
52668;SDS011;59898;52.786;6.892;2022-11-20T04:31:45;14.98;;;11.05;;
52668;SDS011;59898;52.786;6.892;2022-11-20T04:35:06;15.20;;;10.18;;
52668;SDS011;59898;52.786;6.892;2022-11-20T04:38:27;16.20;;;10.88;;
52668;SDS011;59898;52.786;6.892;2022-11-20T04:41:47;16.45;;;12.07;;
52668;SDS011;59898;52.786;6.892;2022-11-20T04:45:08;12.93;;;9.90;;
52668;SDS011;59898;52.786;6.892;2022-11-20T04:48:29;15.60;;;11.90;;
52668;SDS011;59898;52.786;6.892;2022-11-20T04:51:53;15.68;;;11.05;;
52668;SDS011;59898;52.786;6.892;2022-11-20T04:55:13;13.05;;;10.20;;
52668;SDS011;59898;52.786;6.892;2022-11-20T04:58:34;19.30;;;10.85;;
52668;SDS011;59898;52.786;6.892;2022-11-20T05:01:55;13.70;;;10.65;;
52668;SDS011;59898;52.786;6.892;2022-11-20T05:05:16;14.95;;;11.45;;
52668;SDS011;59898;52.786;6.892;2022-11-20T05:08:37;14.98;;;10.52;;
52668;SDS011;59898;52.786;6.892;2022-11-20T05:11:58;19.48;;;12.52;;
52668;SDS011;59898;52.786;6.892;2022-11-20T05:15:19;16.17;;;11.70;;
52668;SDS011;59898;52.786;6.892;2022-11-20T05:18:40;18.13;;;12.18;;
52668;SDS011;59898;52.786;6.892;2022-11-20T05:22:01;17.58;;;12.73;;
52668;SDS011;59898;52.786;6.892;2022-11-20T05:25:21;14.88;;;10.25;;
52668;SDS011;59898;52.786;6.892;2022-11-20T05:28:42;14.35;;;10.88;;
52668;SDS011;59898;52.786;6.892;2022-11-20T05:32:03;15.27;;;10.05;;
52668;SDS011;59898;52.786;6.892;2022-11-20T05:35:25;15.82;;;10.35;;
52668;SDS011;59898;52.786;6.892;2022-11-20T05:38:46;14.98;;;11.90;;
52668;SDS011;59898;52.786;6.892;2022-11-20T05:42:07;14.82;;;10.50;;
52668;SDS011;59898;52.786;6.892;2022-11-20T05:45:55;14.95;;;10.55;;
52668;SDS011;59898;52.786;6.892;2022-11-20T05:49:16;13.85;;;10.05;;
52668;SDS011;59898;52.786;6.892;2022-11-20T05:52:36;15.10;;;11.23;;
52668;SDS011;59898;52.786;6.892;2022-11-20T05:55:58;14.00;;;11.27;;
52668;SDS011;59898;52.786;6.892;2022-11-20T05:59:20;13.65;;;9.77;;
52668;SDS011;59898;52.786;6.892;2022-11-20T06:02:40;17.63;;;10.70;;
52668;SDS011;59898;52.786;6.892;2022-11-20T06:06:02;14.07;;;9.98;;
52668;SDS011;59898;52.786;6.892;2022-11-20T06:09:23;15.20;;;10.20;;
52668;SDS011;59898;52.786;6.892;2022-11-20T06:12:44;15.80;;;10.55;;
52668;SDS011;59898;52.786;6.892;2022-11-20T06:16:05;13.32;;;9.80;;
52668;SDS011;59898;52.786;6.892;2022-11-20T06:19:26;15.05;;;10.68;;
52668;SDS011;59898;52.786;6.892;2022-11-20T06:22:47;13.10;;;10.02;;
52668;SDS011;59898;52.786;6.892;2022-11-20T06:26:08;13.98;;;10.50;;
52668;SDS011;59898;52.786;6.892;2022-11-20T06:29:31;13.27;;;9.68;;
52668;SDS011;59898;52.786;6.892;2022-11-20T06:32:52;16.58;;;10.20;;
52668;SDS011;59898;52.786;6.892;2022-11-20T06:36:13;11.65;;;9.57;;
52668;SDS011;59898;52.786;6.892;2022-11-20T06:39:34;16.85;;;9.38;;
52668;SDS011;59898;52.786;6.892;2022-11-20T06:42:55;12.63;;;10.05;;
52668;SDS011;59898;52.786;6.892;2022-11-20T06:46:16;14.93;;;11.02;;
52668;SDS011;59898;52.786;6.892;2022-11-20T06:49:38;15.43;;;10.10;;
52668;SDS011;59898;52.786;6.892;2022-11-20T06:53:02;14.52;;;9.80;;
52668;SDS011;59898;52.786;6.892;2022-11-20T06:56:23;15.70;;;11.13;;
52668;SDS011;59898;52.786;6.892;2022-11-20T06:59:44;14.35;;;10.82;;
52668;SDS011;59898;52.786;6.892;2022-11-20T07:03:05;13.65;;;9.52;;
52668;SDS011;59898;52.786;6.892;2022-11-20T07:06:27;17.80;;;12.15;;
52668;SDS011;59898;52.786;6.892;2022-11-20T07:09:47;17.77;;;12.13;;
52668;SDS011;59898;52.786;6.892;2022-11-20T07:13:08;15.60;;;10.30;;
52668;SDS011;59898;52.786;6.892;2022-11-20T07:16:29;13.52;;;9.98;;
52668;SDS011;59898;52.786;6.892;2022-11-20T07:19:49;13.70;;;10.25;;
52668;SDS011;59898;52.786;6.892;2022-11-20T07:23:10;14.65;;;10.35;;
52668;SDS011;59898;52.786;6.892;2022-11-20T07:26:30;18.10;;;12.45;;
52668;SDS011;59898;52.786;6.892;2022-11-20T07:29:51;17.23;;;11.52;;
52668;SDS011;59898;52.786;6.892;2022-11-20T07:33:12;17.90;;;12.52;;
52668;SDS011;59898;52.786;6.892;2022-11-20T07:36:32;15.57;;;11.00;;
52668;SDS011;59898;52.786;6.892;2022-11-20T07:39:53;13.10;;;10.55;;
52668;SDS011;59898;52.786;6.892;2022-11-20T07:43:14;17.35;;;12.00;;
52668;SDS011;59898;52.786;6.892;2022-11-20T07:46:34;15.70;;;11.35;;
52668;SDS011;59898;52.786;6.892;2022-11-20T07:49:55;16.05;;;11.35;;
52668;SDS011;59898;52.786;6.892;2022-11-20T07:53:16;17.48;;;10.43;;
52668;SDS011;59898;52.786;6.892;2022-11-20T07:56:40;15.63;;;11.95;;
52668;SDS011;59898;52.786;6.892;2022-11-20T08:00:01;15.50;;;11.63;;
52668;SDS011;59898;52.786;6.892;2022-11-20T08:03:23;15.35;;;11.57;;
52668;SDS011;59898;52.786;6.892;2022-11-20T08:06:44;15.77;;;11.70;;
52668;SDS011;59898;52.786;6.892;2022-11-20T08:10:05;15.68;;;10.57;;
52668;SDS011;59898;52.786;6.892;2022-11-20T08:13:26;15.13;;;11.05;;
52668;SDS011;59898;52.786;6.892;2022-11-20T08:17:06;16.90;;;10.98;;
52668;SDS011;59898;52.786;6.892;2022-11-20T08:20:26;17.85;;;11.95;;
52668;SDS011;59898;52.786;6.892;2022-11-20T08:23:47;17.23;;;12.45;;
52668;SDS011;59898;52.786;6.892;2022-11-20T08:27:08;18.83;;;12.88;;
52668;SDS011;59898;52.786;6.892;2022-11-20T08:30:29;16.65;;;11.50;;
52668;SDS011;59898;52.786;6.892;2022-11-20T08:33:50;19.77;;;11.40;;
52668;SDS011;59898;52.786;6.892;2022-11-20T08:37:11;14.77;;;11.50;;
52668;SDS011;59898;52.786;6.892;2022-11-20T08:40:32;15.02;;;11.35;;
52668;SDS011;59898;52.786;6.892;2022-11-20T08:44:00;17.88;;;10.75;;
52668;SDS011;59898;52.786;6.892;2022-11-20T08:47:22;14.45;;;10.57;;
52668;SDS011;59898;52.786;6.892;2022-11-20T08:50:43;13.32;;;9.48;;
52668;SDS011;59898;52.786;6.892;2022-11-20T08:54:04;15.82;;;11.10;;
52668;SDS011;59898;52.786;6.892;2022-11-20T08:57:25;13.60;;;10.15;;
52668;SDS011;59898;52.786;6.892;2022-11-20T09:00:45;14.57;;;10.50;;
52668;SDS011;59898;52.786;6.892;2022-11-20T09:04:07;13.32;;;8.65;;
52668;SDS011;59898;52.786;6.892;2022-11-20T09:07:28;14.15;;;10.73;;
52668;SDS011;59898;52.786;6.892;2022-11-20T09:10:53;15.57;;;10.60;;
52668;SDS011;59898;52.786;6.892;2022-11-20T09:14:15;14.95;;;10.27;;
52668;SDS011;59898;52.786;6.892;2022-11-20T09:17:36;16.73;;;11.50;;
52668;SDS011;59898;52.786;6.892;2022-11-20T09:20:57;18.60;;;11.57;;
52668;SDS011;59898;52.786;6.892;2022-11-20T09:24:19;18.27;;;10.52;;
52668;SDS011;59898;52.786;6.892;2022-11-20T09:27:41;15.43;;;11.30;;
52668;SDS011;59898;52.786;6.892;2022-11-20T09:31:37;15.70;;;12.93;;
52668;SDS011;59898;52.786;6.892;2022-11-20T09:34:50;14.38;;;9.65;;
52668;SDS011;59898;52.786;6.892;2022-11-20T09:38:11;17.20;;;11.63;;
52668;SDS011;59898;52.786;6.892;2022-11-20T09:41:51;15.23;;;11.30;;
52668;SDS011;59898;52.786;6.892;2022-11-20T09:45:46;16.38;;;10.95;;
52668;SDS011;59898;52.786;6.892;2022-11-20T09:49:16;15.57;;;11.30;;
52668;SDS011;59898;52.786;6.892;2022-11-20T09:56:37;16.15;;;11.40;;
52668;SDS011;59898;52.786;6.892;2022-11-20T10:00:01;13.93;;;10.30;;
52668;SDS011;59898;52.786;6.892;2022-11-20T10:07:25;19.75;;;13.43;;
52668;SDS011;59898;52.786;6.892;2022-11-20T10:18:31;12.60;;;9.50;;
52668;SDS011;59898;52.786;6.892;2022-11-20T10:25:39;11.77;;;8.95;;
52668;SDS011;59898;52.786;6.892;2022-11-20T10:29:11;13.32;;;8.95;;
52668;SDS011;59898;52.786;6.892;2022-11-20T10:32:38;13.85;;;9.93;;
52668;SDS011;59898;52.786;6.892;2022-11-20T10:39:35;11.63;;;9.38;;
52668;SDS011;59898;52.786;6.892;2022-11-20T10:46:48;13.93;;;9.88;;
52668;SDS011;59898;52.786;6.892;2022-11-20T10:50:10;17.75;;;10.35;;
52668;SDS011;59898;52.786;6.892;2022-11-20T10:57:26;8.85;;;6.45;;
52668;SDS011;59898;52.786;6.892;2022-11-20T11:01:13;7.63;;;5.82;;
52668;SDS011;59898;52.786;6.892;2022-11-20T11:04:37;8.77;;;6.22;;
52668;SDS011;59898;52.786;6.892;2022-11-20T11:08:05;8.23;;;5.97;;
52668;SDS011;59898;52.786;6.892;2022-11-20T11:11:32;6.97;;;5.07;;
52668;SDS011;59898;52.786;6.892;2022-11-20T11:14:55;9.48;;;5.47;;
52668;SDS011;59898;52.786;6.892;2022-11-20T11:18:27;7.32;;;5.85;;
52668;SDS011;59898;52.786;6.892;2022-11-20T11:21:50;9.00;;;5.40;;
52668;SDS011;59898;52.786;6.892;2022-11-20T11:29:00;8.57;;;6.43;;
52668;SDS011;59898;52.786;6.892;2022-11-20T11:32:23;9.07;;;6.13;;
52668;SDS011;59898;52.786;6.892;2022-11-20T11:35:48;10.73;;;6.88;;
52668;SDS011;59898;52.786;6.892;2022-11-20T11:39:14;8.85;;;7.20;;
52668;SDS011;59898;52.786;6.892;2022-11-20T11:42:44;9.82;;;6.60;;
52668;SDS011;59898;52.786;6.892;2022-11-20T11:49:40;10.07;;;6.75;;
52668;SDS011;59898;52.786;6.892;2022-11-20T11:53:05;13.45;;;7.50;;
52668;SDS011;59898;52.786;6.892;2022-11-20T11:56:36;8.68;;;7.10;;
52668;SDS011;59898;52.786;6.892;2022-11-20T12:00:02;11.55;;;6.57;;
52668;SDS011;59898;52.786;6.892;2022-11-20T12:07:00;10.63;;;6.70;;
52668;SDS011;59898;52.786;6.892;2022-11-20T12:10:46;10.00;;;7.30;;
52668;SDS011;59898;52.786;6.892;2022-11-20T12:14:24;10.80;;;8.07;;
52668;SDS011;59898;52.786;6.892;2022-11-20T12:17:47;11.13;;;8.23;;
52668;SDS011;59898;52.786;6.892;2022-11-20T12:32:29;12.43;;;8.30;;
52668;SDS011;59898;52.786;6.892;2022-11-20T12:46:39;12.23;;;8.27;;
52668;SDS011;59898;52.786;6.892;2022-11-20T12:50:10;12.30;;;8.43;;
52668;SDS011;59898;52.786;6.892;2022-11-20T12:57:31;15.63;;;8.48;;
52668;SDS011;59898;52.786;6.892;2022-11-20T13:05:15;13.45;;;8.90;;
52668;SDS011;59898;52.786;6.892;2022-11-20T13:08:49;12.02;;;8.50;;
52668;SDS011;59898;52.786;6.892;2022-11-20T13:12:15;13.10;;;8.70;;
52668;SDS011;59898;52.786;6.892;2022-11-20T13:19:24;12.43;;;8.13;;
52668;SDS011;59898;52.786;6.892;2022-11-20T13:26:41;13.65;;;10.57;;
52668;SDS011;59898;52.786;6.892;2022-11-20T13:29:59;19.27;;;11.52;;
52668;SDS011;59898;52.786;6.892;2022-11-20T13:33:32;14.95;;;10.68;;
52668;SDS011;59898;52.786;6.892;2022-11-20T13:36:56;13.35;;;10.45;;
52668;SDS011;59898;52.786;6.892;2022-11-20T13:40:22;16.50;;;10.70;;
52668;SDS011;59898;52.786;6.892;2022-11-20T13:43:43;19.48;;;12.68;;
52668;SDS011;59898;52.786;6.892;2022-11-20T13:47:25;17.77;;;12.02;;
52668;SDS011;59898;52.786;6.892;2022-11-20T13:51:37;16.17;;;12.50;;
52668;SDS011;59898;52.786;6.892;2022-11-20T13:54:52;16.85;;;12.05;;
52668;SDS011;59898;52.786;6.892;2022-11-20T14:02:16;16.60;;;13.05;;
52668;SDS011;59898;52.786;6.892;2022-11-20T14:05:40;17.58;;;12.05;;
52668;SDS011;59898;52.786;6.892;2022-11-20T14:09:11;18.48;;;12.75;;
52668;SDS011;59898;52.786;6.892;2022-11-20T14:12:44;19.92;;;13.32;;
52668;SDS011;59898;52.786;6.892;2022-11-20T14:16:05;26.90;;;15.18;;
52668;SDS011;59898;52.786;6.892;2022-11-20T14:19:26;20.02;;;14.52;;
52668;SDS011;59898;52.786;6.892;2022-11-20T14:22:49;21.90;;;13.35;;
52668;SDS011;59898;52.786;6.892;2022-11-20T14:26:12;21.08;;;14.25;;
52668;SDS011;59898;52.786;6.892;2022-11-20T14:29:38;19.42;;;13.50;;
52668;SDS011;59898;52.786;6.892;2022-11-20T14:33:01;17.33;;;12.88;;
52668;SDS011;59898;52.786;6.892;2022-11-20T14:36:23;16.15;;;13.02;;
52668;SDS011;59898;52.786;6.892;2022-11-20T14:39:55;17.10;;;13.30;;
52668;SDS011;59898;52.786;6.892;2022-11-20T14:46:44;15.23;;;11.85;;
52668;SDS011;59898;52.786;6.892;2022-11-20T14:50:07;14.48;;;11.93;;
52668;SDS011;59898;52.786;6.892;2022-11-20T14:53:43;18.25;;;14.13;;
52668;SDS011;59898;52.786;6.892;2022-11-20T14:57:04;17.50;;;13.30;;
52668;SDS011;59898;52.786;6.892;2022-11-20T15:00:24;18.55;;;13.23;;
52668;SDS011;59898;52.786;6.892;2022-11-20T15:03:46;19.55;;;13.38;;
52668;SDS011;59898;52.786;6.892;2022-11-20T15:07:07;23.90;;;16.77;;
52668;SDS011;59898;52.786;6.892;2022-11-20T15:10:28;19.08;;;13.48;;
52668;SDS011;59898;52.786;6.892;2022-11-20T15:13:48;20.23;;;14.00;;
52668;SDS011;59898;52.786;6.892;2022-11-20T15:17:09;20.20;;;14.50;;
52668;SDS011;59898;52.786;6.892;2022-11-20T15:20:32;24.52;;;16.00;;
52668;SDS011;59898;52.786;6.892;2022-11-20T15:23:54;22.35;;;14.70;;
52668;SDS011;59898;52.786;6.892;2022-11-20T15:27:15;18.83;;;13.13;;
52668;SDS011;59898;52.786;6.892;2022-11-20T15:30:36;18.35;;;13.98;;
52668;SDS011;59898;52.786;6.892;2022-11-20T15:33:56;18.25;;;13.07;;
52668;SDS011;59898;52.786;6.892;2022-11-20T15:37:17;23.00;;;14.68;;
52668;SDS011;59898;52.786;6.892;2022-11-20T15:40:38;19.02;;;13.73;;
52668;SDS011;59898;52.786;6.892;2022-11-20T15:43:59;18.92;;;14.90;;
52668;SDS011;59898;52.786;6.892;2022-11-20T15:47:20;20.00;;;15.27;;
52668;SDS011;59898;52.786;6.892;2022-11-20T15:50:57;22.15;;;14.82;;
52668;SDS011;59898;52.786;6.892;2022-11-20T15:54:23;21.08;;;14.20;;
52668;SDS011;59898;52.786;6.892;2022-11-20T15:57:43;24.63;;;16.00;;
52668;SDS011;59898;52.786;6.892;2022-11-20T16:01:04;19.50;;;14.23;;
52668;SDS011;59898;52.786;6.892;2022-11-20T16:04:25;20.10;;;14.02;;
52668;SDS011;59898;52.786;6.892;2022-11-20T16:07:46;22.63;;;16.33;;
52668;SDS011;59898;52.786;6.892;2022-11-20T16:11:06;18.92;;;15.07;;
52668;SDS011;59898;52.786;6.892;2022-11-20T16:14:30;20.35;;;15.05;;
52668;SDS011;59898;52.786;6.892;2022-11-20T16:18:10;23.98;;;16.33;;
52668;SDS011;59898;52.786;6.892;2022-11-20T16:21:31;24.30;;;16.80;;
52668;SDS011;59898;52.786;6.892;2022-11-20T16:24:52;22.65;;;15.25;;
52668;SDS011;59898;52.786;6.892;2022-11-20T16:28:13;21.98;;;16.25;;
52668;SDS011;59898;52.786;6.892;2022-11-20T16:31:34;25.70;;;15.10;;
52668;SDS011;59898;52.786;6.892;2022-11-20T16:34:54;28.02;;;15.95;;
52668;SDS011;59898;52.786;6.892;2022-11-20T16:38:15;20.33;;;16.00;;
52668;SDS011;59898;52.786;6.892;2022-11-20T16:41:36;23.05;;;16.08;;
52668;SDS011;59898;52.786;6.892;2022-11-20T16:44:57;24.23;;;15.98;;
52668;SDS011;59898;52.786;6.892;2022-11-20T16:48:17;24.85;;;16.52;;
52668;SDS011;59898;52.786;6.892;2022-11-20T16:51:38;21.52;;;15.95;;
52668;SDS011;59898;52.786;6.892;2022-11-20T16:54:59;29.33;;;16.75;;
52668;SDS011;59898;52.786;6.892;2022-11-20T16:58:20;26.38;;;17.73;;
52668;SDS011;59898;52.786;6.892;2022-11-20T17:01:41;25.13;;;16.98;;
52668;SDS011;59898;52.786;6.892;2022-11-20T17:05:02;26.73;;;17.30;;
52668;SDS011;59898;52.786;6.892;2022-11-20T17:08:23;27.92;;;19.13;;
52668;SDS011;59898;52.786;6.892;2022-11-20T17:15:08;29.30;;;17.70;;
52668;SDS011;59898;52.786;6.892;2022-11-20T17:18:29;28.92;;;18.35;;
52668;SDS011;59898;52.786;6.892;2022-11-20T17:21:50;24.50;;;18.10;;
52668;SDS011;59898;52.786;6.892;2022-11-20T17:25:11;29.02;;;18.38;;
52668;SDS011;59898;52.786;6.892;2022-11-20T17:28:31;27.55;;;19.30;;
52668;SDS011;59898;52.786;6.892;2022-11-20T17:31:53;28.98;;;20.08;;
52668;SDS011;59898;52.786;6.892;2022-11-20T17:35:14;32.72;;;20.50;;
52668;SDS011;59898;52.786;6.892;2022-11-20T17:38:35;27.80;;;17.80;;
52668;SDS011;59898;52.786;6.892;2022-11-20T17:41:56;25.77;;;17.08;;
52668;SDS011;59898;52.786;6.892;2022-11-20T17:45:35;30.38;;;19.67;;
52668;SDS011;59898;52.786;6.892;2022-11-20T17:48:55;25.75;;;17.65;;
52668;SDS011;59898;52.786;6.892;2022-11-20T17:52:16;29.45;;;18.88;;
52668;SDS011;59898;52.786;6.892;2022-11-20T17:55:37;26.98;;;19.08;;
52668;SDS011;59898;52.786;6.892;2022-11-20T17:59:16;32.10;;;20.88;;
52668;SDS011;59898;52.786;6.892;2022-11-20T18:02:37;27.73;;;17.15;;
52668;SDS011;59898;52.786;6.892;2022-11-20T18:05:58;25.45;;;17.15;;
52668;SDS011;59898;52.786;6.892;2022-11-20T18:09:34;22.60;;;17.58;;
52668;SDS011;59898;52.786;6.892;2022-11-20T18:12:55;28.35;;;19.40;;
52668;SDS011;59898;52.786;6.892;2022-11-20T18:16:15;31.92;;;18.63;;
52668;SDS011;59898;52.786;6.892;2022-11-20T18:19:40;24.67;;;17.50;;
52668;SDS011;59898;52.786;6.892;2022-11-20T18:23:03;30.65;;;19.40;;
52668;SDS011;59898;52.786;6.892;2022-11-20T18:26:24;29.20;;;20.35;;
52668;SDS011;59898;52.786;6.892;2022-11-20T18:29:46;27.30;;;17.98;;
52668;SDS011;59898;52.786;6.892;2022-11-20T18:33:10;27.27;;;17.75;;
52668;SDS011;59898;52.786;6.892;2022-11-20T18:36:31;28.65;;;19.10;;
52668;SDS011;59898;52.786;6.892;2022-11-20T18:39:51;24.40;;;16.58;;
52668;SDS011;59898;52.786;6.892;2022-11-20T18:43:12;30.25;;;19.20;;
52668;SDS011;59898;52.786;6.892;2022-11-20T18:46:51;25.02;;;17.15;;
52668;SDS011;59898;52.786;6.892;2022-11-20T18:50:12;31.77;;;19.70;;
52668;SDS011;59898;52.786;6.892;2022-11-20T18:53:36;26.92;;;18.58;;
52668;SDS011;59898;52.786;6.892;2022-11-20T18:56:57;27.73;;;17.45;;
52668;SDS011;59898;52.786;6.892;2022-11-20T19:00:17;26.80;;;17.60;;
52668;SDS011;59898;52.786;6.892;2022-11-20T19:03:38;24.95;;;17.98;;
52668;SDS011;59898;52.786;6.892;2022-11-20T19:06:59;26.95;;;18.00;;
52668;SDS011;59898;52.786;6.892;2022-11-20T19:10:19;31.65;;;19.98;;
52668;SDS011;59898;52.786;6.892;2022-11-20T19:13:43;31.90;;;19.23;;
52668;SDS011;59898;52.786;6.892;2022-11-20T19:17:04;29.33;;;19.13;;
52668;SDS011;59898;52.786;6.892;2022-11-20T19:20:26;27.02;;;17.60;;
52668;SDS011;59898;52.786;6.892;2022-11-20T19:23:47;23.83;;;16.73;;
52668;SDS011;59898;52.786;6.892;2022-11-20T19:27:12;27.35;;;18.40;;
52668;SDS011;59898;52.786;6.892;2022-11-20T19:30:33;30.63;;;18.50;;
52668;SDS011;59898;52.786;6.892;2022-11-20T19:33:58;32.75;;;20.30;;
52668;SDS011;59898;52.786;6.892;2022-11-20T19:37:20;25.92;;;18.88;;
52668;SDS011;59898;52.786;6.892;2022-11-20T19:40:41;30.70;;;20.83;;
52668;SDS011;59898;52.786;6.892;2022-11-20T19:44:03;30.70;;;18.52;;
52668;SDS011;59898;52.786;6.892;2022-11-20T19:47:25;28.90;;;18.67;;
52668;SDS011;59898;52.786;6.892;2022-11-20T19:50:45;28.10;;;19.20;;
52668;SDS011;59898;52.786;6.892;2022-11-20T19:54:06;26.20;;;17.58;;
52668;SDS011;59898;52.786;6.892;2022-11-20T19:57:27;28.13;;;17.40;;
52668;SDS011;59898;52.786;6.892;2022-11-20T20:00:48;27.38;;;19.08;;
52668;SDS011;59898;52.786;6.892;2022-11-20T20:04:08;28.52;;;18.55;;
52668;SDS011;59898;52.786;6.892;2022-11-20T20:07:29;25.63;;;18.80;;
52668;SDS011;59898;52.786;6.892;2022-11-20T20:10:50;28.90;;;18.92;;
52668;SDS011;59898;52.786;6.892;2022-11-20T20:14:12;31.25;;;19.17;;
52668;SDS011;59898;52.786;6.892;2022-11-20T20:20:54;31.20;;;18.17;;
52668;SDS011;59898;52.786;6.892;2022-11-20T20:24:15;26.70;;;19.55;;
52668;SDS011;59898;52.786;6.892;2022-11-20T20:27:35;27.85;;;18.75;;
52668;SDS011;59898;52.786;6.892;2022-11-20T20:30:56;28.83;;;18.40;;
52668;SDS011;59898;52.786;6.892;2022-11-20T20:34:24;26.45;;;17.23;;
52668;SDS011;59898;52.786;6.892;2022-11-20T20:37:48;30.27;;;19.85;;
52668;SDS011;59898;52.786;6.892;2022-11-20T20:41:09;31.17;;;18.92;;
52668;SDS011;59898;52.786;6.892;2022-11-20T20:44:29;29.08;;;19.08;;
52668;SDS011;59898;52.786;6.892;2022-11-20T20:48:09;28.02;;;18.35;;
52668;SDS011;59898;52.786;6.892;2022-11-20T20:51:29;43.95;;;27.63;;
52668;SDS011;59898;52.786;6.892;2022-11-20T20:54:50;29.02;;;18.70;;
52668;SDS011;59898;52.786;6.892;2022-11-20T20:58:11;30.95;;;20.23;;
52668;SDS011;59898;52.786;6.892;2022-11-20T21:01:31;29.77;;;18.10;;
52668;SDS011;59898;52.786;6.892;2022-11-20T21:04:52;30.40;;;20.23;;
52668;SDS011;59898;52.786;6.892;2022-11-20T21:08:13;27.85;;;18.48;;
52668;SDS011;59898;52.786;6.892;2022-11-20T21:11:47;28.70;;;19.02;;
52668;SDS011;59898;52.786;6.892;2022-11-20T21:15:08;29.02;;;20.67;;
52668;SDS011;59898;52.786;6.892;2022-11-20T21:18:29;28.75;;;17.83;;
52668;SDS011;59898;52.786;6.892;2022-11-20T21:21:50;29.67;;;18.85;;
52668;SDS011;59898;52.786;6.892;2022-11-20T21:25:20;24.20;;;17.55;;
52668;SDS011;59898;52.786;6.892;2022-11-20T21:28:41;30.25;;;19.30;;